sensor_id;sensor_type;location;lat;lon;timestamp;pressure;altitude;pressure_sealevel;temperature;humidity
80976;BME280;70437;49.466;11.002;2023-09-19T00:00:48;97667.44;;;17.92;100.00
80976;BME280;70437;49.466;11.002;2023-09-19T00:03:18;97665.53;;;17.92;100.00
80976;BME280;70437;49.466;11.002;2023-09-19T00:05:48;97663.13;;;17.91;100.00
80976;BME280;70437;49.466;11.002;2023-09-19T00:08:18;97669.09;;;17.88;100.00
80976;BME280;70437;49.466;11.002;2023-09-19T00:10:53;97663.72;;;17.83;100.00
80976;BME280;70437;49.466;11.002;2023-09-19T00:13:23;97675.88;;;17.90;100.00
80976;BME280;70437;49.466;11.002;2023-09-19T00:15:53;97677.75;;;17.90;100.00
80976;BME280;70437;49.466;11.002;2023-09-19T00:18:23;97676.69;;;17.91;100.00
80976;BME280;70437;49.466;11.002;2023-09-19T00:20:57;97676.69;;;17.91;100.00
80976;BME280;70437;49.466;11.002;2023-09-19T00:23:27;97679.59;;;17.94;100.00
80976;BME280;70437;49.466;11.002;2023-09-19T00:25:59;97694.50;;;17.97;100.00
80976;BME280;70437;49.466;11.002;2023-09-19T00:28:30;97687.69;;;18.05;100.00
80976;BME280;70437;49.466;11.002;2023-09-19T00:31:00;97683.88;;;18.06;100.00
80976;BME280;70437;49.466;11.002;2023-09-19T00:33:32;97692.56;;;18.03;100.00
80976;BME280;70437;49.466;11.002;2023-09-19T00:36:01;97700.78;;;17.92;100.00
80976;BME280;70437;49.466;11.002;2023-09-19T00:38:34;97697.84;;;17.84;100.00
80976;BME280;70437;49.466;11.002;2023-09-19T00:41:05;97700.84;;;17.72;100.00
80976;BME280;70437;49.466;11.002;2023-09-19T00:43:35;97697.13;;;17.68;100.00
80976;BME280;70437;49.466;11.002;2023-09-19T00:46:04;97703.34;;;17.68;100.00
80976;BME280;70437;49.466;11.002;2023-09-19T00:48:38;97700.09;;;17.66;100.00
80976;BME280;70437;49.466;11.002;2023-09-19T00:51:12;97706.06;;;17.68;100.00
80976;BME280;70437;49.466;11.002;2023-09-19T00:53:46;97714.41;;;17.72;100.00
80976;BME280;70437;49.466;11.002;2023-09-19T00:56:17;97712.31;;;17.64;100.00
80976;BME280;70437;49.466;11.002;2023-09-19T00:58:47;97712.59;;;17.57;100.00
80976;BME280;70437;49.466;11.002;2023-09-19T01:01:17;97718.00;;;17.57;100.00
80976;BME280;70437;49.466;11.002;2023-09-19T01:03:47;97722.09;;;17.55;100.00
80976;BME280;70437;49.466;11.002;2023-09-19T01:06:16;97721.63;;;17.42;100.00
80976;BME280;70437;49.466;11.002;2023-09-19T01:08:45;97723.53;;;17.37;100.00
80976;BME280;70437;49.466;11.002;2023-09-19T01:11:21;97722.47;;;17.33;100.00
80976;BME280;70437;49.466;11.002;2023-09-19T01:13:57;97719.25;;;17.26;100.00
80976;BME280;70437;49.466;11.002;2023-09-19T01:16:36;97719.78;;;17.33;100.00
80976;BME280;70437;49.466;11.002;2023-09-19T01:19:33;97715.94;;;17.39;100.00
80976;BME280;70437;49.466;11.002;2023-09-19T01:22:15;97723.50;;;17.47;100.00
80976;BME280;70437;49.466;11.002;2023-09-19T01:25:04;97724.81;;;17.55;100.00
80976;BME280;70437;49.466;11.002;2023-09-19T01:27:53;97728.00;;;17.62;100.00
80976;BME280;70437;49.466;11.002;2023-09-19T01:30:32;97732.84;;;17.70;100.00
80976;BME280;70437;49.466;11.002;2023-09-19T01:33:03;97739.38;;;17.74;100.00
80976;BME280;70437;49.466;11.002;2023-09-19T01:35:35;97738.56;;;17.74;100.00
80976;BME280;70437;49.466;11.002;2023-09-19T01:38:06;97736.91;;;17.67;100.00
80976;BME280;70437;49.466;11.002;2023-09-19T01:40:42;97736.69;;;17.64;100.00
80976;BME280;70437;49.466;11.002;2023-09-19T01:43:17;97727.78;;;17.53;100.00
80976;BME280;70437;49.466;11.002;2023-09-19T01:45:58;97730.22;;;17.50;100.00
80976;BME280;70437;49.466;11.002;2023-09-19T01:48:36;97733.50;;;17.52;100.00
80976;BME280;70437;49.466;11.002;2023-09-19T01:51:09;97733.47;;;17.57;100.00
80976;BME280;70437;49.466;11.002;2023-09-19T01:53:44;97732.06;;;17.64;100.00
80976;BME280;70437;49.466;11.002;2023-09-19T01:56:22;97735.84;;;17.68;100.00
80976;BME280;70437;49.466;11.002;2023-09-19T01:58:56;97734.78;;;17.64;100.00
80976;BME280;70437;49.466;11.002;2023-09-19T02:01:28;97739.94;;;17.61;100.00
80976;BME280;70437;49.466;11.002;2023-09-19T02:03:57;97749.69;;;17.62;100.00
80976;BME280;70437;49.466;11.002;2023-09-19T02:06:27;97740.22;;;17.59;100.00
80976;BME280;70437;49.466;11.002;2023-09-19T02:08:56;97743.16;;;17.68;100.00
80976;BME280;70437;49.466;11.002;2023-09-19T02:11:28;97742.84;;;17.80;100.00
80976;BME280;70437;49.466;11.002;2023-09-19T02:13:57;97746.41;;;17.75;100.00
80976;BME280;70437;49.466;11.002;2023-09-19T02:16:28;97753.41;;;17.81;100.00
80976;BME280;70437;49.466;11.002;2023-09-19T02:18:57;97748.28;;;17.80;100.00
80976;BME280;70437;49.466;11.002;2023-09-19T02:21:27;97760.69;;;17.91;100.00
80976;BME280;70437;49.466;11.002;2023-09-19T02:23:57;97749.81;;;17.96;100.00
80976;BME280;70437;49.466;11.002;2023-09-19T02:26:29;97753.31;;;17.97;100.00
80976;BME280;70437;49.466;11.002;2023-09-19T02:28:58;97760.06;;;18.04;100.00
80976;BME280;70437;49.466;11.002;2023-09-19T02:31:30;97760.13;;;17.89;100.00
80976;BME280;70437;49.466;11.002;2023-09-19T02:34:00;97762.88;;;17.84;100.00
80976;BME280;70437;49.466;11.002;2023-09-19T02:36:29;97767.19;;;17.85;100.00
80976;BME280;70437;49.466;11.002;2023-09-19T02:39:00;97776.09;;;17.96;100.00
80976;BME280;70437;49.466;11.002;2023-09-19T02:41:30;97772.38;;;17.86;100.00
80976;BME280;70437;49.466;11.002;2023-09-19T02:44:01;97766.94;;;17.81;100.00
80976;BME280;70437;49.466;11.002;2023-09-19T02:46:32;97768.31;;;17.79;100.00
80976;BME280;70437;49.466;11.002;2023-09-19T02:49:01;97769.09;;;17.84;100.00
80976;BME280;70437;49.466;11.002;2023-09-19T02:51:31;97772.13;;;17.67;100.00
80976;BME280;70437;49.466;11.002;2023-09-19T02:54:02;97768.06;;;17.75;100.00
80976;BME280;70437;49.466;11.002;2023-09-19T02:56:32;97772.94;;;17.78;100.00
80976;BME280;70437;49.466;11.002;2023-09-19T02:59:04;97782.09;;;17.87;100.00
80976;BME280;70437;49.466;11.002;2023-09-19T03:01:35;97777.78;;;17.81;100.00
80976;BME280;70437;49.466;11.002;2023-09-19T03:04:05;97776.16;;;17.80;100.00
80976;BME280;70437;49.466;11.002;2023-09-19T03:06:38;97787.25;;;17.84;100.00
80976;BME280;70437;49.466;11.002;2023-09-19T03:09:08;97790.78;;;17.84;100.00
80976;BME280;70437;49.466;11.002;2023-09-19T03:11:41;97793.75;;;17.88;100.00
80976;BME280;70437;49.466;11.002;2023-09-19T03:14:12;97792.41;;;17.85;100.00
80976;BME280;70437;49.466;11.002;2023-09-19T03:16:43;97798.22;;;18.08;100.00
80976;BME280;70437;49.466;11.002;2023-09-19T03:19:13;97794.97;;;18.11;100.00
80976;BME280;70437;49.466;11.002;2023-09-19T03:21:44;97793.66;;;18.03;100.00
80976;BME280;70437;49.466;11.002;2023-09-19T03:24:13;97797.13;;;18.14;100.00
80976;BME280;70437;49.466;11.002;2023-09-19T03:26:43;97798.59;;;17.96;100.00
80976;BME280;70437;49.466;11.002;2023-09-19T03:29:17;97793.69;;;17.98;100.00
80976;BME280;70437;49.466;11.002;2023-09-19T03:31:48;97796.13;;;18.00;100.00
80976;BME280;70437;49.466;11.002;2023-09-19T03:34:17;97793.94;;;18.02;100.00
80976;BME280;70437;49.466;11.002;2023-09-19T03:36:47;97796.72;;;17.91;100.00
80976;BME280;70437;49.466;11.002;2023-09-19T03:39:17;97804.00;;;17.96;100.00
80976;BME280;70437;49.466;11.002;2023-09-19T03:41:46;97805.91;;;17.96;100.00
80976;BME280;70437;49.466;11.002;2023-09-19T03:44:17;97803.47;;;17.94;100.00
80976;BME280;70437;49.466;11.002;2023-09-19T03:46:50;97819.47;;;17.96;100.00
80976;BME280;70437;49.466;11.002;2023-09-19T03:49:21;97812.22;;;17.76;100.00
80976;BME280;70437;49.466;11.002;2023-09-19T03:51:51;97816.00;;;17.80;100.00
80976;BME280;70437;49.466;11.002;2023-09-19T03:54:20;97801.13;;;17.77;100.00
80976;BME280;70437;49.466;11.002;2023-09-19T03:56:52;97804.94;;;17.61;100.00
80976;BME280;70437;49.466;11.002;2023-09-19T03:59:21;97808.19;;;17.63;100.00
80976;BME280;70437;49.466;11.002;2023-09-19T04:01:52;97810.38;;;17.56;100.00
80976;BME280;70437;49.466;11.002;2023-09-19T04:04:23;97813.88;;;17.61;100.00
80976;BME280;70437;49.466;11.002;2023-09-19T04:06:53;97821.72;;;17.63;100.00
80976;BME280;70437;49.466;11.002;2023-09-19T04:09:24;97814.69;;;17.62;100.00
80976;BME280;70437;49.466;11.002;2023-09-19T04:11:55;97812.75;;;17.67;100.00
80976;BME280;70437;49.466;11.002;2023-09-19T04:14:24;97820.41;;;17.55;100.00
80976;BME280;70437;49.466;11.002;2023-09-19T04:16:54;97823.63;;;17.62;100.00
80976;BME280;70437;49.466;11.002;2023-09-19T04:19:23;97823.66;;;17.57;100.00
80976;BME280;70437;49.466;11.002;2023-09-19T04:21:53;97832.34;;;17.49;100.00
80976;BME280;70437;49.466;11.002;2023-09-19T04:24:21;97833.41;;;17.53;100.00
80976;BME280;70437;49.466;11.002;2023-09-19T04:26:51;97834.47;;;17.57;100.00
80976;BME280;70437;49.466;11.002;2023-09-19T04:29:21;97835.84;;;17.55;100.00
80976;BME280;70437;49.466;11.002;2023-09-19T04:31:50;97840.69;;;17.63;100.00
80976;BME280;70437;49.466;11.002;2023-09-19T04:34:21;97837.72;;;17.64;100.00
80976;BME280;70437;49.466;11.002;2023-09-19T04:36:51;97838.53;;;17.65;100.00
80976;BME280;70437;49.466;11.002;2023-09-19T04:39:21;97843.13;;;17.64;100.00
80976;BME280;70437;49.466;11.002;2023-09-19T04:41:54;97846.63;;;17.75;100.00
80976;BME280;70437;49.466;11.002;2023-09-19T04:44:25;97848.53;;;17.69;100.00
80976;BME280;70437;49.466;11.002;2023-09-19T04:46:54;97842.56;;;17.73;100.00
80976;BME280;70437;49.466;11.002;2023-09-19T04:49:27;97839.59;;;17.79;100.00
80976;BME280;70437;49.466;11.002;2023-09-19T04:51:57;97842.28;;;17.79;100.00
80976;BME280;70437;49.466;11.002;2023-09-19T04:54:41;97851.50;;;17.73;100.00
80976;BME280;70437;49.466;11.002;2023-09-19T04:57:10;97857.19;;;17.77;100.00
80976;BME280;70437;49.466;11.002;2023-09-19T05:00:04;97849.06;;;17.82;100.00
80976;BME280;70437;49.466;11.002;2023-09-19T05:02:40;97854.22;;;17.78;100.00
80976;BME280;70437;49.466;11.002;2023-09-19T05:05:12;97852.56;;;17.72;100.00
80976;BME280;70437;49.466;11.002;2023-09-19T05:07:43;97859.59;;;17.88;100.00
80976;BME280;70437;49.466;11.002;2023-09-19T05:10:13;97859.88;;;17.87;100.00
80976;BME280;70437;49.466;11.002;2023-09-19T05:12:46;97861.19;;;17.94;100.00
80976;BME280;70437;49.466;11.002;2023-09-19T05:15:20;97858.00;;;17.82;100.00
80976;BME280;70437;49.466;11.002;2023-09-19T05:17:49;97863.66;;;17.91;100.00
80976;BME280;70437;49.466;11.002;2023-09-19T05:20:27;97865.22;;;18.02;100.00
80976;BME280;70437;49.466;11.002;2023-09-19T05:23:02;97864.97;;;17.99;100.00
80976;BME280;70437;49.466;11.002;2023-09-19T05:25:33;97868.00;;;17.87;100.00
80976;BME280;70437;49.466;11.002;2023-09-19T05:28:07;97864.72;;;17.90;100.00
80976;BME280;70437;49.466;11.002;2023-09-19T05:30:37;97873.13;;;17.93;100.00
80976;BME280;70437;49.466;11.002;2023-09-19T05:33:09;97873.41;;;17.92;100.00
80976;BME280;70437;49.466;11.002;2023-09-19T05:35:42;97882.88;;;17.94;100.00
80976;BME280;70437;49.466;11.002;2023-09-19T05:38:11;97882.88;;;17.94;100.00
80976;BME280;70437;49.466;11.002;2023-09-19T05:40:40;97877.75;;;17.88;100.00
80976;BME280;70437;49.466;11.002;2023-09-19T05:43:10;97892.31;;;18.02;100.00
80976;BME280;70437;49.466;11.002;2023-09-19T05:45:39;97895.00;;;18.07;100.00
80976;BME280;70437;49.466;11.002;2023-09-19T05:48:09;97895.31;;;18.06;100.00
80976;BME280;70437;49.466;11.002;2023-09-19T05:50:43;97896.94;;;18.02;100.00
80976;BME280;70437;49.466;11.002;2023-09-19T05:53:12;97902.91;;;18.04;100.00
80976;BME280;70437;49.466;11.002;2023-09-19T05:55:44;97909.13;;;18.04;100.00
80976;BME280;70437;49.466;11.002;2023-09-19T05:58:14;97913.72;;;18.09;100.00
80976;BME280;70437;49.466;11.002;2023-09-19T06:00:45;97919.34;;;18.28;100.00
80976;BME280;70437;49.466;11.002;2023-09-19T06:03:18;97920.69;;;18.25;100.00
80976;BME280;70437;49.466;11.002;2023-09-19T06:05:49;97922.63;;;18.19;100.00
80976;BME280;70437;49.466;11.002;2023-09-19T06:08:20;97923.44;;;18.20;100.00
80976;BME280;70437;49.466;11.002;2023-09-19T06:10:49;97925.78;;;18.37;100.00
80976;BME280;70437;49.466;11.002;2023-09-19T06:13:20;97930.09;;;18.43;100.00
80976;BME280;70437;49.466;11.002;2023-09-19T06:15:49;97931.88;;;18.13;100.00
80976;BME280;70437;49.466;11.002;2023-09-19T06:18:19;97940.19;;;18.32;100.00
80976;BME280;70437;49.466;11.002;2023-09-19T06:20:49;97934.81;;;18.17;100.00
80976;BME280;70437;49.466;11.002;2023-09-19T06:23:20;97939.78;;;18.00;100.00
80976;BME280;70437;49.466;11.002;2023-09-19T06:25:53;97942.50;;;18.00;100.00
80976;BME280;70437;49.466;11.002;2023-09-19T06:28:23;97942.47;;;18.10;100.00
80976;BME280;70437;49.466;11.002;2023-09-19T06:30:54;97957.66;;;18.06;100.00
80976;BME280;70437;49.466;11.002;2023-09-19T06:33:25;97943.53;;;18.09;100.00
80976;BME280;70437;49.466;11.002;2023-09-19T06:35:56;97946.50;;;18.12;100.00
80976;BME280;70437;49.466;11.002;2023-09-19T06:38:28;97948.16;;;18.03;100.00
80976;BME280;70437;49.466;11.002;2023-09-19T06:40:58;97949.81;;;18.04;100.00
80976;BME280;70437;49.466;11.002;2023-09-19T06:43:28;97954.38;;;18.14;100.00
80976;BME280;70437;49.466;11.002;2023-09-19T06:45:59;97960.56;;;18.19;100.00
80976;BME280;70437;49.466;11.002;2023-09-19T06:48:29;97949.69;;;18.30;100.00
80976;BME280;70437;49.466;11.002;2023-09-19T06:51:00;97959.19;;;18.32;100.00
80976;BME280;70437;49.466;11.002;2023-09-19T06:53:33;97956.97;;;18.39;100.00
80976;BME280;70437;49.466;11.002;2023-09-19T06:56:04;97961.56;;;18.39;100.00
80976;BME280;70437;49.466;11.002;2023-09-19T06:58:34;97960.56;;;18.25;100.00
80976;BME280;70437;49.466;11.002;2023-09-19T07:01:04;97978.69;;;18.34;100.00
80976;BME280;70437;49.466;11.002;2023-09-19T07:03:33;97963.22;;;18.35;100.00
80976;BME280;70437;49.466;11.002;2023-09-19T07:06:06;97976.44;;;18.52;100.00
80976;BME280;70437;49.466;11.002;2023-09-19T07:08:36;97974.25;;;18.59;100.00
80976;BME280;70437;49.466;11.002;2023-09-19T07:11:06;97977.47;;;18.71;100.00
80976;BME280;70437;49.466;11.002;2023-09-19T07:13:35;97980.97;;;18.77;100.00
80976;BME280;70437;49.466;11.002;2023-09-19T07:16:07;97978.84;;;18.58;100.00
80976;BME280;70437;49.466;11.002;2023-09-19T07:18:40;97976.13;;;18.63;100.00
80976;BME280;70437;49.466;11.002;2023-09-19T07:21:13;97981.41;;;18.94;100.00
80976;BME280;70437;49.466;11.002;2023-09-19T07:23:46;97986.13;;;19.17;100.00
80976;BME280;70437;49.466;11.002;2023-09-19T07:26:16;97984.84;;;19.05;100.00
80976;BME280;70437;49.466;11.002;2023-09-19T07:28:47;97980.09;;;18.86;100.00
80976;BME280;70437;49.466;11.002;2023-09-19T07:31:16;97982.00;;;18.86;100.00
80976;BME280;70437;49.466;11.002;2023-09-19T07:33:46;97989.22;;;19.01;100.00
80976;BME280;70437;49.466;11.002;2023-09-19T07:36:16;97989.97;;;19.06;100.00
80976;BME280;70437;49.466;11.002;2023-09-19T07:38:45;97991.63;;;19.07;100.00
80976;BME280;70437;49.466;11.002;2023-09-19T07:41:15;97994.25;;;19.17;100.00
80976;BME280;70437;49.466;11.002;2023-09-19T07:43:47;97996.94;;;18.78;100.00
80976;BME280;70437;49.466;11.002;2023-09-19T07:46:16;97998.59;;;18.74;100.00
80976;BME280;70437;49.466;11.002;2023-09-19T07:48:45;97995.34;;;18.77;100.00
80976;BME280;70437;49.466;11.002;2023-09-19T07:51:17;97991.00;;;18.76;100.00
80976;BME280;70437;49.466;11.002;2023-09-19T07:53:46;97999.06;;;18.86;100.00
80976;BME280;70437;49.466;11.002;2023-09-19T07:56:16;98003.59;;;19.01;100.00
80976;BME280;70437;49.466;11.002;2023-09-19T07:58:47;97998.34;;;19.15;100.00
80976;BME280;70437;49.466;11.002;2023-09-19T08:01:16;98005.22;;;19.41;100.00
80976;BME280;70437;49.466;11.002;2023-09-19T08:03:50;98014.34;;;19.56;100.00
80976;BME280;70437;49.466;11.002;2023-09-19T08:06:22;98013.25;;;19.57;100.00
80976;BME280;70437;49.466;11.002;2023-09-19T08:08:53;98017.38;;;19.49;100.00
80976;BME280;70437;49.466;11.002;2023-09-19T08:11:28;98024.78;;;19.43;100.00
80976;BME280;70437;49.466;11.002;2023-09-19T08:13:58;98031.84;;;19.39;100.00
80976;BME280;70437;49.466;11.002;2023-09-19T08:16:28;98025.19;;;19.61;100.00
80976;BME280;70437;49.466;11.002;2023-09-19T08:18:57;98030.41;;;19.86;100.00
80976;BME280;70437;49.466;11.002;2023-09-19T08:21:27;98028.31;;;19.78;100.00
80976;BME280;70437;49.466;11.002;2023-09-19T08:23:57;98030.19;;;19.78;100.00
80976;BME280;70437;49.466;11.002;2023-09-19T08:26:27;98047.56;;;19.82;100.00
80976;BME280;70437;49.466;11.002;2023-09-19T08:28:59;98049.56;;;19.71;100.00
80976;BME280;70437;49.466;11.002;2023-09-19T08:31:33;98045.09;;;19.85;100.00
80976;BME280;70437;49.466;11.002;2023-09-19T08:34:05;98041.91;;;20.31;100.00
80976;BME280;70437;49.466;11.002;2023-09-19T08:36:35;98046.47;;;20.84;100.00
80976;BME280;70437;49.466;11.002;2023-09-19T08:39:05;98043.56;;;20.56;100.00
80976;BME280;70437;49.466;11.002;2023-09-19T08:41:36;98039.91;;;20.42;100.00
80976;BME280;70437;49.466;11.002;2023-09-19T08:44:05;98040.38;;;20.73;100.00
80976;BME280;70437;49.466;11.002;2023-09-19T08:46:37;98043.59;;;20.27;100.00
80976;BME280;70437;49.466;11.002;2023-09-19T08:49:16;98050.53;;;20.38;100.00
80976;BME280;70437;49.466;11.002;2023-09-19T08:51:56;98055.72;;;20.64;97.17
80976;BME280;70437;49.466;11.002;2023-09-19T08:54:32;98060.09;;;21.03;89.00
80976;BME280;70437;49.466;11.002;2023-09-19T08:57:07;98064.31;;;21.14;76.66
80976;BME280;70437;49.466;11.002;2023-09-19T08:59:41;98056.41;;;21.36;68.18
80976;BME280;70437;49.466;11.002;2023-09-19T09:02:12;98059.75;;;21.28;64.19
80976;BME280;70437;49.466;11.002;2023-09-19T09:04:45;98062.56;;;21.04;63.46
80976;BME280;70437;49.466;11.002;2023-09-19T09:07:18;98085.66;;;20.35;66.08
80976;BME280;70437;49.466;11.002;2023-09-19T09:09:48;98091.41;;;20.33;66.71
80976;BME280;70437;49.466;11.002;2023-09-19T09:12:17;98075.75;;;20.49;64.14
80976;BME280;70437;49.466;11.002;2023-09-19T09:14:46;98082.78;;;20.55;64.60
80976;BME280;70437;49.466;11.002;2023-09-19T09:17:21;98075.09;;;20.04;66.02
80976;BME280;70437;49.466;11.002;2023-09-19T09:19:52;98080.09;;;20.21;66.81
80976;BME280;70437;49.466;11.002;2023-09-19T09:22:24;98076.94;;;20.09;66.28
80976;BME280;70437;49.466;11.002;2023-09-19T09:24:54;98075.38;;;19.74;64.35
80976;BME280;70437;49.466;11.002;2023-09-19T09:27:25;98083.72;;;19.82;63.27
80976;BME280;70437;49.466;11.002;2023-09-19T09:29:59;98092.03;;;19.96;62.75
80976;BME280;70437;49.466;11.002;2023-09-19T09:32:30;98082.00;;;20.20;60.80
80976;BME280;70437;49.466;11.002;2023-09-19T09:35:07;98092.63;;;20.46;59.83
80976;BME280;70437;49.466;11.002;2023-09-19T09:37:38;98093.66;;;20.55;59.13
80976;BME280;70437;49.466;11.002;2023-09-19T09:40:08;98098.19;;;20.36;61.92
80976;BME280;70437;49.466;11.002;2023-09-19T09:43:01;98105.25;;;20.08;62.04
80976;BME280;70437;49.466;11.002;2023-09-19T09:45:32;98093.59;;;20.02;62.63
80976;BME280;70437;49.466;11.002;2023-09-19T09:48:06;98098.63;;;20.19;61.77
80976;BME280;70437;49.466;11.002;2023-09-19T09:50:46;98092.75;;;20.07;62.26
80976;BME280;70437;49.466;11.002;2023-09-19T09:53:26;98091.88;;;20.11;63.16
80976;BME280;70437;49.466;11.002;2023-09-19T09:56:00;98098.03;;;20.22;62.14
80976;BME280;70437;49.466;11.002;2023-09-19T09:58:34;98086.28;;;20.56;59.85
80976;BME280;70437;49.466;11.002;2023-09-19T10:01:06;98091.75;;;19.98;62.00
80976;BME280;70437;49.466;11.002;2023-09-19T10:03:43;98082.88;;;20.16;61.63
80976;BME280;70437;49.466;11.002;2023-09-19T10:06:15;98093.00;;;20.87;59.14
80976;BME280;70437;49.466;11.002;2023-09-19T10:09:02;98096.13;;;21.18;58.25
80976;BME280;70437;49.466;11.002;2023-09-19T10:11:42;98081.31;;;21.81;55.50
80976;BME280;70437;49.466;11.002;2023-09-19T10:14:15;98083.81;;;22.70;52.68
80976;BME280;70437;49.466;11.002;2023-09-19T10:16:48;98079.56;;;22.78;52.41
80976;BME280;70437;49.466;11.002;2023-09-19T10:19:23;98084.38;;;22.12;54.84
80976;BME280;70437;49.466;11.002;2023-09-19T10:21:58;98084.94;;;22.09;54.86
80976;BME280;70437;49.466;11.002;2023-09-19T10:24:30;98075.84;;;21.49;56.20
80976;BME280;70437;49.466;11.002;2023-09-19T10:27:00;98075.94;;;21.19;57.60
80976;BME280;70437;49.466;11.002;2023-09-19T10:29:32;98090.53;;;21.10;57.27
80976;BME280;70437;49.466;11.002;2023-09-19T10:32:05;98084.81;;;21.68;55.60
80976;BME280;70437;49.466;11.002;2023-09-19T10:34:36;98094.03;;;20.91;59.13
80976;BME280;70437;49.466;11.002;2023-09-19T10:37:12;98080.53;;;21.24;57.58
80976;BME280;70437;49.466;11.002;2023-09-19T10:39:48;98091.16;;;20.83;59.21
80976;BME280;70437;49.466;11.002;2023-09-19T10:42:20;98092.03;;;20.78;58.92
80976;BME280;70437;49.466;11.002;2023-09-19T10:44:51;98096.91;;;20.81;59.26
80976;BME280;70437;49.466;11.002;2023-09-19T10:47:22;98091.59;;;21.70;56.03
80976;BME280;70437;49.466;11.002;2023-09-19T10:49:52;98088.63;;;21.29;56.93
80976;BME280;70437;49.466;11.002;2023-09-19T10:52:24;98089.47;;;21.49;55.99
80976;BME280;70437;49.466;11.002;2023-09-19T10:55:00;98084.31;;;21.66;54.97
80976;BME280;70437;49.466;11.002;2023-09-19T10:57:33;98099.59;;;23.01;51.20
80976;BME280;70437;49.466;11.002;2023-09-19T11:00:09;98087.16;;;24.35;45.25
80976;BME280;70437;49.466;11.002;2023-09-19T11:03:18;98050.66;;;23.86;44.52
80976;BME280;70437;49.466;11.002;2023-09-19T11:06:06;98089.16;;;23.67;48.31
80976;BME280;70437;49.466;11.002;2023-09-19T11:08:58;98090.22;;;23.30;51.09
80976;BME280;70437;49.466;11.002;2023-09-19T11:11:57;98084.19;;;23.19;50.45
80976;BME280;70437;49.466;11.002;2023-09-19T11:14:38;98085.38;;;23.40;49.59
80976;BME280;70437;49.466;11.002;2023-09-19T11:17:38;98082.97;;;23.25;50.81
80976;BME280;70437;49.466;11.002;2023-09-19T11:20:30;98084.81;;;22.88;51.93
80976;BME280;70437;49.466;11.002;2023-09-19T11:23:23;98081.84;;;21.64;55.25
80976;BME280;70437;49.466;11.002;2023-09-19T11:25:55;98073.19;;;21.43;56.21
80976;BME280;70437;49.466;11.002;2023-09-19T11:28:31;98077.09;;;21.89;54.94
80976;BME280;70437;49.466;11.002;2023-09-19T11:34:40;98065.94;;;21.15;56.50
80976;BME280;70437;49.466;11.002;2023-09-19T11:40:30;98077.41;;;20.93;57.05
80976;BME280;70437;49.466;11.002;2023-09-19T11:43:32;98078.19;;;20.93;56.39
80976;BME280;70437;49.466;11.002;2023-09-19T11:46:14;98070.72;;;20.85;56.70
80976;BME280;70437;49.466;11.002;2023-09-19T11:48:49;98076.31;;;20.94;56.12
80976;BME280;70437;49.466;11.002;2023-09-19T11:51:21;98075.78;;;21.86;52.76
80976;BME280;70437;49.466;11.002;2023-09-19T11:54:04;98068.13;;;22.35;50.26
80976;BME280;70437;49.466;11.002;2023-09-19T11:56:43;98077.75;;;22.87;48.08
80976;BME280;70437;49.466;11.002;2023-09-19T11:59:20;98078.22;;;23.17;47.15
80976;BME280;70437;49.466;11.002;2023-09-19T12:01:58;98069.75;;;22.63;47.85
80976;BME280;70437;49.466;11.002;2023-09-19T12:04:34;98067.75;;;22.41;47.57
80976;BME280;70437;49.466;11.002;2023-09-19T12:07:08;98070.06;;;22.89;45.11
80976;BME280;70437;49.466;11.002;2023-09-19T12:09:45;98057.31;;;22.85;44.37
80976;BME280;70437;49.466;11.002;2023-09-19T12:12:19;98052.38;;;23.01;43.61
80976;BME280;70437;49.466;11.002;2023-09-19T12:14:51;98065.13;;;23.64;42.78
80976;BME280;70437;49.466;11.002;2023-09-19T12:17:22;98063.69;;;23.44;42.77
80976;BME280;70437;49.466;11.002;2023-09-19T12:19:55;98067.22;;;22.26;46.23
80976;BME280;70437;49.466;11.002;2023-09-19T12:22:39;98065.81;;;22.42;44.91
80976;BME280;70437;49.466;11.002;2023-09-19T12:25:08;98054.47;;;22.62;44.36
80976;BME280;70437;49.466;11.002;2023-09-19T12:27:42;98050.78;;;23.58;42.49
80976;BME280;70437;49.466;11.002;2023-09-19T12:30:16;98040.56;;;23.28;44.39
80976;BME280;70437;49.466;11.002;2023-09-19T12:32:54;98063.38;;;23.09;44.27
80976;BME280;70437;49.466;11.002;2023-09-19T12:35:31;98051.19;;;23.52;43.49
80976;BME280;70437;49.466;11.002;2023-09-19T12:38:03;98059.56;;;23.33;44.45
80976;BME280;70437;49.466;11.002;2023-09-19T12:40:34;98054.56;;;22.85;45.71
80976;BME280;70437;49.466;11.002;2023-09-19T12:43:06;98067.63;;;22.19;47.12
80976;BME280;70437;49.466;11.002;2023-09-19T12:45:44;98060.94;;;22.25;46.16
80976;BME280;70437;49.466;11.002;2023-09-19T12:48:23;98062.00;;;22.10;46.81
80976;BME280;70437;49.466;11.002;2023-09-19T12:51:06;98067.19;;;22.12;47.25
80976;BME280;70437;49.466;11.002;2023-09-19T12:53:40;98065.75;;;22.14;47.70
80976;BME280;70437;49.466;11.002;2023-09-19T12:56:14;98052.38;;;21.99;48.56
80976;BME280;70437;49.466;11.002;2023-09-19T12:58:52;98059.53;;;21.95;48.81
80976;BME280;70437;49.466;11.002;2023-09-19T13:01:25;98059.44;;;22.60;46.71
80976;BME280;70437;49.466;11.002;2023-09-19T13:04:14;98035.97;;;22.45;46.62
80976;BME280;70437;49.466;11.002;2023-09-19T13:06:47;98047.78;;;22.27;46.84
80976;BME280;70437;49.466;11.002;2023-09-19T13:09:18;98046.91;;;22.59;45.54
80976;BME280;70437;49.466;11.002;2023-09-19T13:11:48;98044.34;;;23.18;44.76
80976;BME280;70437;49.466;11.002;2023-09-19T13:14:20;98038.38;;;23.61;43.21
80976;BME280;70437;49.466;11.002;2023-09-19T13:16:56;98046.31;;;23.62;42.36
80976;BME280;70437;49.466;11.002;2023-09-19T13:19:40;98050.91;;;24.29;41.17